Terminal Aerodrome Forecast
Issued by NWS

Current Version | Previous Version | Graphics & Text | Print | Product List | Glossary On
Versions: 1 2 3 4 5 6 7 8 9 10 11 12 13 14 15 16 17 18 19 20 21 22 23 24 25 26 27 28
000
FTUS41 KRNK 220834 AAA
TAFLWB
TAF AMD
KLWB 220834Z 2209/2306 00000KT P6SM SCT250
     FM221030 00000KT 3SM BR SCT006
      TEMPO 2211/2212 1/4SM FG OVC001
     FM221330 09003KT P6SM SCT250=

USA.gov is the U.S. government's official web portal to all federal, state and local government web resources and services.